sensor_id;sensor_type;location;lat;lon;timestamp;P1;durP1;ratioP1;P2;durP2;ratioP2
13807;SDS011;40769;51.512;5.494;2024-01-11T00:01:59;14.63;;;13.13;;
13807;SDS011;40769;51.512;5.494;2024-01-11T00:04:24;15.07;;;13.23;;
13807;SDS011;40769;51.512;5.494;2024-01-11T00:06:51;13.70;;;12.27;;
13807;SDS011;40769;51.512;5.494;2024-01-11T00:09:16;14.33;;;12.83;;
13807;SDS011;40769;51.512;5.494;2024-01-11T00:11:42;14.30;;;12.77;;
13807;SDS011;40769;51.512;5.494;2024-01-11T00:14:07;14.50;;;12.97;;
13807;SDS011;40769;51.512;5.494;2024-01-11T00:16:33;14.13;;;12.63;;
13807;SDS011;40769;51.512;5.494;2024-01-11T00:18:59;14.23;;;12.73;;
13807;SDS011;40769;51.512;5.494;2024-01-11T00:21:25;12.23;;;11.03;;
13807;SDS011;40769;51.512;5.494;2024-01-11T00:23:51;12.67;;;11.27;;
13807;SDS011;40769;51.512;5.494;2024-01-11T00:26:16;12.27;;;11.07;;
13807;SDS011;40769;51.512;5.494;2024-01-11T00:28:42;12.37;;;11.07;;
13807;SDS011;40769;51.512;5.494;2024-01-11T00:31:08;11.77;;;10.55;;
13807;SDS011;40769;51.512;5.494;2024-01-11T00:33:33;12.73;;;11.38;;
13807;SDS011;40769;51.512;5.494;2024-01-11T00:35:59;12.77;;;11.45;;
13807;SDS011;40769;51.512;5.494;2024-01-11T00:38:24;12.55;;;11.25;;
13807;SDS011;40769;51.512;5.494;2024-01-11T00:40:50;15.27;;;13.73;;
13807;SDS011;40769;51.512;5.494;2024-01-11T00:43:16;14.40;;;12.90;;
13807;SDS011;40769;51.512;5.494;2024-01-11T00:45:41;13.30;;;12.00;;
13807;SDS011;40769;51.512;5.494;2024-01-11T00:48:07;11.32;;;10.13;;
13807;SDS011;40769;51.512;5.494;2024-01-11T00:50:32;11.68;;;10.57;;
13807;SDS011;40769;51.512;5.494;2024-01-11T00:52:58;11.70;;;10.60;;
13807;SDS011;40769;51.512;5.494;2024-01-11T00:55:23;12.45;;;11.25;;
13807;SDS011;40769;51.512;5.494;2024-01-11T00:57:49;11.27;;;10.18;;
13807;SDS011;40769;51.512;5.494;2024-01-11T01:00:15;12.73;;;11.40;;
13807;SDS011;40769;51.512;5.494;2024-01-11T01:02:41;11.48;;;10.38;;
13807;SDS011;40769;51.512;5.494;2024-01-11T01:05:07;11.43;;;10.32;;
13807;SDS011;40769;51.512;5.494;2024-01-11T01:07:33;11.73;;;10.55;;
13807;SDS011;40769;51.512;5.494;2024-01-11T01:09:58;14.82;;;13.27;;
13807;SDS011;40769;51.512;5.494;2024-01-11T01:12:24;15.93;;;14.35;;
13807;SDS011;40769;51.512;5.494;2024-01-11T01:14:50;15.60;;;14.00;;
13807;SDS011;40769;51.512;5.494;2024-01-11T01:17:16;14.77;;;13.27;;
13807;SDS011;40769;51.512;5.494;2024-01-11T01:19:42;14.65;;;13.10;;
13807;SDS011;40769;51.512;5.494;2024-01-11T01:22:08;11.88;;;10.68;;
13807;SDS011;40769;51.512;5.494;2024-01-11T01:24:33;12.77;;;11.38;;
13807;SDS011;40769;51.512;5.494;2024-01-11T01:26:59;12.38;;;11.15;;
13807;SDS011;40769;51.512;5.494;2024-01-11T01:29:25;14.70;;;13.20;;
13807;SDS011;40769;51.512;5.494;2024-01-11T01:31:51;14.30;;;12.77;;
13807;SDS011;40769;51.512;5.494;2024-01-11T01:34:17;14.95;;;12.38;;
13807;SDS011;40769;51.512;5.494;2024-01-11T01:36:43;14.18;;;12.75;;
13807;SDS011;40769;51.512;5.494;2024-01-11T01:39:08;14.30;;;12.80;;
13807;SDS011;40769;51.512;5.494;2024-01-11T01:41:34;15.80;;;14.03;;
13807;SDS011;40769;51.512;5.494;2024-01-11T01:43:59;14.93;;;13.32;;
13807;SDS011;40769;51.512;5.494;2024-01-11T01:46:25;14.85;;;13.00;;
13807;SDS011;40769;51.512;5.494;2024-01-11T01:48:55;13.57;;;11.52;;
13807;SDS011;40769;51.512;5.494;2024-01-11T01:51:23;13.13;;;11.65;;
13807;SDS011;40769;51.512;5.494;2024-01-11T01:53:54;12.00;;;10.75;;
13807;SDS011;40769;51.512;5.494;2024-01-11T01:56:21;12.80;;;11.07;;
13807;SDS011;40769;51.512;5.494;2024-01-11T01:58:47;12.52;;;11.23;;
13807;SDS011;40769;51.512;5.494;2024-01-11T02:01:15;14.07;;;12.63;;
13807;SDS011;40769;51.512;5.494;2024-01-11T02:03:41;13.65;;;12.25;;
13807;SDS011;40769;51.512;5.494;2024-01-11T02:06:08;13.02;;;11.75;;
13807;SDS011;40769;51.512;5.494;2024-01-11T02:08:34;14.55;;;13.05;;
13807;SDS011;40769;51.512;5.494;2024-01-11T02:11:00;15.57;;;13.30;;
13807;SDS011;40769;51.512;5.494;2024-01-11T02:13:26;15.27;;;13.63;;
13807;SDS011;40769;51.512;5.494;2024-01-11T02:15:52;15.88;;;14.00;;
13807;SDS011;40769;51.512;5.494;2024-01-11T02:18:17;14.17;;;12.73;;
13807;SDS011;40769;51.512;5.494;2024-01-11T02:20:43;15.67;;;13.53;;
13807;SDS011;40769;51.512;5.494;2024-01-11T02:23:11;14.53;;;12.90;;
13807;SDS011;40769;51.512;5.494;2024-01-11T02:25:39;15.13;;;13.53;;
13807;SDS011;40769;51.512;5.494;2024-01-11T02:28:05;15.80;;;13.83;;
13807;SDS011;40769;51.512;5.494;2024-01-11T02:30:31;15.07;;;13.50;;
13807;SDS011;40769;51.512;5.494;2024-01-11T02:32:57;15.67;;;13.23;;
13807;SDS011;40769;51.512;5.494;2024-01-11T02:35:22;15.50;;;13.80;;
13807;SDS011;40769;51.512;5.494;2024-01-11T02:37:50;14.93;;;12.67;;
13807;SDS011;40769;51.512;5.494;2024-01-11T02:40:16;13.90;;;12.50;;
13807;SDS011;40769;51.512;5.494;2024-01-11T02:42:43;14.65;;;12.93;;
13807;SDS011;40769;51.512;5.494;2024-01-11T02:45:10;14.67;;;13.20;;
13807;SDS011;40769;51.512;5.494;2024-01-11T02:47:37;15.00;;;13.40;;
13807;SDS011;40769;51.512;5.494;2024-01-11T02:50:03;15.50;;;13.60;;
13807;SDS011;40769;51.512;5.494;2024-01-11T02:52:29;14.73;;;13.13;;
13807;SDS011;40769;51.512;5.494;2024-01-11T02:54:55;16.30;;;14.33;;
13807;SDS011;40769;51.512;5.494;2024-01-11T02:57:20;15.67;;;13.53;;
13807;SDS011;40769;51.512;5.494;2024-01-11T02:59:46;14.90;;;13.30;;
13807;SDS011;40769;51.512;5.494;2024-01-11T03:02:11;13.80;;;12.37;;
13807;SDS011;40769;51.512;5.494;2024-01-11T03:04:37;15.83;;;13.80;;
13807;SDS011;40769;51.512;5.494;2024-01-11T03:07:03;16.13;;;14.40;;
13807;SDS011;40769;51.512;5.494;2024-01-11T03:09:28;13.77;;;11.97;;
13807;SDS011;40769;51.512;5.494;2024-01-11T03:11:54;12.70;;;11.40;;
13807;SDS011;40769;51.512;5.494;2024-01-11T03:14:19;13.07;;;11.07;;
13807;SDS011;40769;51.512;5.494;2024-01-11T03:16:45;12.83;;;11.53;;
13807;SDS011;40769;51.512;5.494;2024-01-11T03:19:10;15.13;;;13.53;;
13807;SDS011;40769;51.512;5.494;2024-01-11T03:21:40;15.30;;;13.73;;
13807;SDS011;40769;51.512;5.494;2024-01-11T03:24:07;14.13;;;12.60;;
13807;SDS011;40769;51.512;5.494;2024-01-11T03:26:33;13.00;;;11.60;;
13807;SDS011;40769;51.512;5.494;2024-01-11T03:28:58;13.90;;;12.40;;
13807;SDS011;40769;51.512;5.494;2024-01-11T03:31:24;13.70;;;12.20;;
13807;SDS011;40769;51.512;5.494;2024-01-11T03:33:50;12.67;;;11.37;;
13807;SDS011;40769;51.512;5.494;2024-01-11T03:36:15;12.57;;;11.27;;
13807;SDS011;40769;51.512;5.494;2024-01-11T03:38:41;13.80;;;11.80;;
13807;SDS011;40769;51.512;5.494;2024-01-11T03:41:10;12.00;;;10.80;;
13807;SDS011;40769;51.512;5.494;2024-01-11T03:43:36;15.73;;;14.02;;
13807;SDS011;40769;51.512;5.494;2024-01-11T03:46:02;16.80;;;14.77;;
13807;SDS011;40769;51.512;5.494;2024-01-11T03:48:28;15.93;;;14.23;;
13807;SDS011;40769;51.512;5.494;2024-01-11T03:50:53;16.05;;;14.35;;
13807;SDS011;40769;51.512;5.494;2024-01-11T03:53:19;15.67;;;14.07;;
13807;SDS011;40769;51.512;5.494;2024-01-11T03:55:47;14.87;;;13.27;;
13807;SDS011;40769;51.512;5.494;2024-01-11T03:58:13;15.57;;;13.43;;
13807;SDS011;40769;51.512;5.494;2024-01-11T04:00:39;14.27;;;12.77;;
13807;SDS011;40769;51.512;5.494;2024-01-11T04:03:06;14.37;;;12.73;;
13807;SDS011;40769;51.512;5.494;2024-01-11T04:05:32;16.90;;;14.07;;
13807;SDS011;40769;51.512;5.494;2024-01-11T04:07:57;15.80;;;14.20;;
13807;SDS011;40769;51.512;5.494;2024-01-11T04:10:23;15.27;;;13.40;;
13807;SDS011;40769;51.512;5.494;2024-01-11T04:12:48;15.10;;;13.50;;
13807;SDS011;40769;51.512;5.494;2024-01-11T04:15:14;15.07;;;13.50;;
13807;SDS011;40769;51.512;5.494;2024-01-11T04:17:40;15.43;;;13.23;;
13807;SDS011;40769;51.512;5.494;2024-01-11T04:20:06;13.83;;;12.30;;
13807;SDS011;40769;51.512;5.494;2024-01-11T04:22:33;13.70;;;11.93;;
13807;SDS011;40769;51.512;5.494;2024-01-11T04:24:59;14.23;;;12.63;;
13807;SDS011;40769;51.512;5.494;2024-01-11T04:27:25;15.63;;;13.93;;
13807;SDS011;40769;51.512;5.494;2024-01-11T04:29:51;17.87;;;15.47;;
13807;SDS011;40769;51.512;5.494;2024-01-11T04:32:16;15.17;;;13.37;;
13807;SDS011;40769;51.512;5.494;2024-01-11T04:34:42;17.57;;;13.87;;
13807;SDS011;40769;51.512;5.494;2024-01-11T04:37:08;15.57;;;13.53;;
13807;SDS011;40769;51.512;5.494;2024-01-11T04:39:33;14.00;;;12.13;;
13807;SDS011;40769;51.512;5.494;2024-01-11T04:41:59;13.20;;;11.70;;
13807;SDS011;40769;51.512;5.494;2024-01-11T04:44:25;14.63;;;12.67;;
13807;SDS011;40769;51.512;5.494;2024-01-11T04:46:51;14.10;;;12.40;;
13807;SDS011;40769;51.512;5.494;2024-01-11T04:49:17;14.90;;;13.37;;
13807;SDS011;40769;51.512;5.494;2024-01-11T04:51:42;14.50;;;12.97;;
13807;SDS011;40769;51.512;5.494;2024-01-11T04:54:08;15.03;;;12.70;;
13807;SDS011;40769;51.512;5.494;2024-01-11T04:56:33;14.50;;;12.40;;
13807;SDS011;40769;51.512;5.494;2024-01-11T04:58:59;13.63;;;11.23;;
13807;SDS011;40769;51.512;5.494;2024-01-11T05:01:25;12.73;;;10.87;;
13807;SDS011;40769;51.512;5.494;2024-01-11T05:03:50;12.17;;;10.90;;
13807;SDS011;40769;51.512;5.494;2024-01-11T05:06:20;12.60;;;11.30;;
13807;SDS011;40769;51.512;5.494;2024-01-11T05:08:47;12.00;;;10.80;;
13807;SDS011;40769;51.512;5.494;2024-01-11T05:11:15;13.50;;;12.10;;
13807;SDS011;40769;51.512;5.494;2024-01-11T05:13:41;11.75;;;10.55;;
13807;SDS011;40769;51.512;5.494;2024-01-11T05:16:08;11.52;;;10.43;;
13807;SDS011;40769;51.512;5.494;2024-01-11T05:18:44;14.60;;;12.65;;
13807;SDS011;40769;51.512;5.494;2024-01-11T05:21:10;13.27;;;11.88;;
13807;SDS011;40769;51.512;5.494;2024-01-11T05:23:36;13.73;;;12.15;;
13807;SDS011;40769;51.512;5.494;2024-01-11T05:26:01;13.10;;;11.77;;
13807;SDS011;40769;51.512;5.494;2024-01-11T05:28:30;13.68;;;12.27;;
13807;SDS011;40769;51.512;5.494;2024-01-11T05:30:56;13.00;;;11.10;;
13807;SDS011;40769;51.512;5.494;2024-01-11T05:33:21;13.10;;;11.80;;
13807;SDS011;40769;51.512;5.494;2024-01-11T05:35:47;13.30;;;11.93;;
13807;SDS011;40769;51.512;5.494;2024-01-11T05:38:12;13.13;;;11.73;;
13807;SDS011;40769;51.512;5.494;2024-01-11T05:40:38;12.03;;;10.83;;
13807;SDS011;40769;51.512;5.494;2024-01-11T05:43:04;11.57;;;10.37;;
13807;SDS011;40769;51.512;5.494;2024-01-11T05:45:29;11.23;;;10.10;;
13807;SDS011;40769;51.512;5.494;2024-01-11T05:47:55;11.32;;;10.20;;
13807;SDS011;40769;51.512;5.494;2024-01-11T05:50:20;11.15;;;10.00;;
13807;SDS011;40769;51.512;5.494;2024-01-11T05:52:46;11.77;;;10.60;;
13807;SDS011;40769;51.512;5.494;2024-01-11T05:55:11;14.25;;;12.43;;
13807;SDS011;40769;51.512;5.494;2024-01-11T05:57:37;14.43;;;11.35;;
13807;SDS011;40769;51.512;5.494;2024-01-11T06:00:04;11.18;;;10.07;;
13807;SDS011;40769;51.512;5.494;2024-01-11T06:02:30;11.30;;;10.20;;
13807;SDS011;40769;51.512;5.494;2024-01-11T06:04:56;12.30;;;10.80;;
13807;SDS011;40769;51.512;5.494;2024-01-11T06:07:22;11.40;;;10.20;;
13807;SDS011;40769;51.512;5.494;2024-01-11T06:09:48;10.38;;;9.38;;
13807;SDS011;40769;51.512;5.494;2024-01-11T06:12:14;12.23;;;11.02;;
13807;SDS011;40769;51.512;5.494;2024-01-11T06:14:40;12.82;;;11.52;;
13807;SDS011;40769;51.512;5.494;2024-01-11T06:17:05;13.30;;;11.93;;
13807;SDS011;40769;51.512;5.494;2024-01-11T06:19:31;13.23;;;11.83;;
13807;SDS011;40769;51.512;5.494;2024-01-11T06:21:57;13.27;;;11.27;;
13807;SDS011;40769;51.512;5.494;2024-01-11T06:24:23;13.53;;;11.53;;
13807;SDS011;40769;51.512;5.494;2024-01-11T06:26:49;13.53;;;11.90;;
13807;SDS011;40769;51.512;5.494;2024-01-11T06:29:14;12.60;;;11.30;;
13807;SDS011;40769;51.512;5.494;2024-01-11T06:31:40;13.03;;;11.60;;
13807;SDS011;40769;51.512;5.494;2024-01-11T06:34:06;13.70;;;11.27;;
13807;SDS011;40769;51.512;5.494;2024-01-11T06:36:31;13.37;;;11.97;;
13807;SDS011;40769;51.512;5.494;2024-01-11T06:38:57;12.33;;;11.00;;
13807;SDS011;40769;51.512;5.494;2024-01-11T06:41:22;13.13;;;11.73;;
13807;SDS011;40769;51.512;5.494;2024-01-11T06:43:51;14.17;;;11.93;;
13807;SDS011;40769;51.512;5.494;2024-01-11T06:46:20;13.30;;;11.97;;
13807;SDS011;40769;51.512;5.494;2024-01-11T06:48:48;14.83;;;12.07;;
13807;SDS011;40769;51.512;5.494;2024-01-11T06:51:15;11.77;;;10.23;;
13807;SDS011;40769;51.512;5.494;2024-01-11T06:53:41;11.60;;;9.90;;
13807;SDS011;40769;51.512;5.494;2024-01-11T06:56:14;12.60;;;11.27;;
13807;SDS011;40769;51.512;5.494;2024-01-11T06:58:43;13.70;;;12.13;;
13807;SDS011;40769;51.512;5.494;2024-01-11T07:01:09;13.20;;;11.80;;
13807;SDS011;40769;51.512;5.494;2024-01-11T07:03:36;16.00;;;12.90;;
13807;SDS011;40769;51.512;5.494;2024-01-11T07:06:02;13.93;;;11.30;;
13807;SDS011;40769;51.512;5.494;2024-01-11T07:08:28;13.03;;;11.43;;
13807;SDS011;40769;51.512;5.494;2024-01-11T07:10:54;14.77;;;12.47;;
13807;SDS011;40769;51.512;5.494;2024-01-11T07:13:20;13.53;;;11.67;;
13807;SDS011;40769;51.512;5.494;2024-01-11T07:15:46;13.53;;;10.90;;
13807;SDS011;40769;51.512;5.494;2024-01-11T07:18:13;14.47;;;11.80;;
13807;SDS011;40769;51.512;5.494;2024-01-11T07:20:39;13.10;;;11.67;;
13807;SDS011;40769;51.512;5.494;2024-01-11T07:23:05;14.87;;;11.67;;
13807;SDS011;40769;51.512;5.494;2024-01-11T07:25:30;15.97;;;12.70;;
13807;SDS011;40769;51.512;5.494;2024-01-11T07:27:57;14.57;;;12.83;;
13807;SDS011;40769;51.512;5.494;2024-01-11T07:30:22;13.83;;;12.40;;
13807;SDS011;40769;51.512;5.494;2024-01-11T07:32:48;13.83;;;12.13;;
13807;SDS011;40769;51.512;5.494;2024-01-11T07:35:14;11.50;;;9.90;;
13807;SDS011;40769;51.512;5.494;2024-01-11T07:37:39;12.67;;;10.17;;
13807;SDS011;40769;51.512;5.494;2024-01-11T07:40:05;12.50;;;10.57;;
13807;SDS011;40769;51.512;5.494;2024-01-11T07:42:38;11.50;;;9.53;;
13807;SDS011;40769;51.512;5.494;2024-01-11T07:45:05;12.20;;;9.63;;
13807;SDS011;40769;51.512;5.494;2024-01-11T07:47:32;11.60;;;10.40;;
13807;SDS011;40769;51.512;5.494;2024-01-11T07:50:01;12.88;;;10.63;;
13807;SDS011;40769;51.512;5.494;2024-01-11T07:52:28;11.50;;;10.20;;
13807;SDS011;40769;51.512;5.494;2024-01-11T07:54:54;11.63;;;10.43;;
13807;SDS011;40769;51.512;5.494;2024-01-11T07:57:19;11.32;;;10.13;;
13807;SDS011;40769;51.512;5.494;2024-01-11T07:59:45;10.68;;;9.57;;
13807;SDS011;40769;51.512;5.494;2024-01-11T08:02:10;11.52;;;10.32;;
13807;SDS011;40769;51.512;5.494;2024-01-11T08:04:36;12.00;;;10.75;;
13807;SDS011;40769;51.512;5.494;2024-01-11T08:07:03;12.73;;;11.35;;
13807;SDS011;40769;51.512;5.494;2024-01-11T08:09:30;11.57;;;10.35;;
13807;SDS011;40769;51.512;5.494;2024-01-11T08:11:56;12.98;;;11.48;;
13807;SDS011;40769;51.512;5.494;2024-01-11T08:14:21;11.95;;;10.75;;
13807;SDS011;40769;51.512;5.494;2024-01-11T08:16:47;10.30;;;9.25;;
13807;SDS011;40769;51.512;5.494;2024-01-11T08:19:12;11.97;;;10.27;;
13807;SDS011;40769;51.512;5.494;2024-01-11T08:21:44;12.13;;;10.85;;
13807;SDS011;40769;51.512;5.494;2024-01-11T08:24:09;12.40;;;11.10;;
13807;SDS011;40769;51.512;5.494;2024-01-11T08:26:36;12.60;;;11.30;;
13807;SDS011;40769;51.512;5.494;2024-01-11T08:29:01;12.15;;;10.93;;
13807;SDS011;40769;51.512;5.494;2024-01-11T08:31:27;11.77;;;10.57;;
13807;SDS011;40769;51.512;5.494;2024-01-11T08:33:53;12.27;;;10.97;;
13807;SDS011;40769;51.512;5.494;2024-01-11T08:36:18;13.60;;;12.00;;
13807;SDS011;40769;51.512;5.494;2024-01-11T08:38:45;12.13;;;10.97;;
13807;SDS011;40769;51.512;5.494;2024-01-11T08:41:10;12.20;;;9.93;;
13807;SDS011;40769;51.512;5.494;2024-01-11T08:43:36;12.68;;;11.38;;
13807;SDS011;40769;51.512;5.494;2024-01-11T08:46:02;12.98;;;11.68;;
13807;SDS011;40769;51.512;5.494;2024-01-11T08:48:28;13.07;;;11.68;;
13807;SDS011;40769;51.512;5.494;2024-01-11T08:50:54;12.63;;;11.38;;
13807;SDS011;40769;51.512;5.494;2024-01-11T08:53:19;9.95;;;8.98;;
13807;SDS011;40769;51.512;5.494;2024-01-11T08:55:45;12.15;;;10.95;;
13807;SDS011;40769;51.512;5.494;2024-01-11T08:58:10;12.75;;;11.45;;
13807;SDS011;40769;51.512;5.494;2024-01-11T09:00:37;11.93;;;10.70;;
13807;SDS011;40769;51.512;5.494;2024-01-11T09:03:03;12.55;;;10.52;;
13807;SDS011;40769;51.512;5.494;2024-01-11T09:05:29;13.52;;;12.13;;
13807;SDS011;40769;51.512;5.494;2024-01-11T09:07:57;12.98;;;11.68;;
13807;SDS011;40769;51.512;5.494;2024-01-11T09:10:23;11.95;;;10.80;;
13807;SDS011;40769;51.512;5.494;2024-01-11T09:12:48;11.15;;;10.02;;
13807;SDS011;40769;51.512;5.494;2024-01-11T09:15:14;11.30;;;10.30;;
13807;SDS011;40769;51.512;5.494;2024-01-11T09:17:40;10.80;;;9.70;;
13807;SDS011;40769;51.512;5.494;2024-01-11T09:20:05;11.05;;;9.82;;
13807;SDS011;40769;51.512;5.494;2024-01-11T09:22:31;11.45;;;10.30;;
13807;SDS011;40769;51.512;5.494;2024-01-11T09:24:57;11.40;;;10.30;;
13807;SDS011;40769;51.512;5.494;2024-01-11T09:27:23;12.35;;;11.15;;
13807;SDS011;40769;51.512;5.494;2024-01-11T09:29:49;15.00;;;12.13;;
13807;SDS011;40769;51.512;5.494;2024-01-11T09:32:14;12.48;;;11.18;;
13807;SDS011;40769;51.512;5.494;2024-01-11T09:34:40;11.57;;;10.40;;
13807;SDS011;40769;51.512;5.494;2024-01-11T09:37:06;13.10;;;11.75;;
13807;SDS011;40769;51.512;5.494;2024-01-11T09:39:31;11.57;;;10.48;;
13807;SDS011;40769;51.512;5.494;2024-01-11T09:42:07;12.18;;;10.98;;
13807;SDS011;40769;51.512;5.494;2024-01-11T09:44:36;12.55;;;11.35;;
13807;SDS011;40769;51.512;5.494;2024-01-11T09:47:03;12.07;;;10.88;;
13807;SDS011;40769;51.512;5.494;2024-01-11T09:49:31;12.85;;;11.63;;
13807;SDS011;40769;51.512;5.494;2024-01-11T09:51:58;14.10;;;12.60;;
13807;SDS011;40769;51.512;5.494;2024-01-11T09:54:26;12.82;;;11.63;;
13807;SDS011;40769;51.512;5.494;2024-01-11T09:56:52;12.55;;;11.25;;
13807;SDS011;40769;51.512;5.494;2024-01-11T09:59:20;13.23;;;11.93;;
13807;SDS011;40769;51.512;5.494;2024-01-11T10:01:48;12.65;;;11.45;;
13807;SDS011;40769;51.512;5.494;2024-01-11T10:04:15;11.75;;;10.70;;
13807;SDS011;40769;51.512;5.494;2024-01-11T10:06:41;12.43;;;11.23;;
13807;SDS011;40769;51.512;5.494;2024-01-11T10:09:07;12.45;;;11.25;;
13807;SDS011;40769;51.512;5.494;2024-01-11T10:11:33;12.25;;;11.05;;
13807;SDS011;40769;51.512;5.494;2024-01-11T10:14:02;13.15;;;11.90;;
13807;SDS011;40769;51.512;5.494;2024-01-11T10:16:30;12.48;;;11.27;;
13807;SDS011;40769;51.512;5.494;2024-01-11T10:18:56;12.32;;;11.13;;
13807;SDS011;40769;51.512;5.494;2024-01-11T10:21:23;13.35;;;12.05;;
13807;SDS011;40769;51.512;5.494;2024-01-11T10:23:49;13.40;;;12.10;;
13807;SDS011;40769;51.512;5.494;2024-01-11T10:26:15;13.48;;;12.10;;
13807;SDS011;40769;51.512;5.494;2024-01-11T10:28:44;12.63;;;11.43;;
13807;SDS011;40769;51.512;5.494;2024-01-11T10:31:11;15.30;;;13.90;;
13807;SDS011;40769;51.512;5.494;2024-01-11T10:33:37;14.02;;;12.73;;
13807;SDS011;40769;51.512;5.494;2024-01-11T10:36:03;13.50;;;12.20;;
13807;SDS011;40769;51.512;5.494;2024-01-11T10:38:30;14.65;;;13.25;;
13807;SDS011;40769;51.512;5.494;2024-01-11T10:40:56;14.38;;;12.98;;
13807;SDS011;40769;51.512;5.494;2024-01-11T10:43:25;15.05;;;13.65;;
13807;SDS011;40769;51.512;5.494;2024-01-11T10:45:51;14.30;;;12.90;;
13807;SDS011;40769;51.512;5.494;2024-01-11T10:48:21;13.68;;;12.38;;
13807;SDS011;40769;51.512;5.494;2024-01-11T10:50:51;12.23;;;11.13;;
13807;SDS011;40769;51.512;5.494;2024-01-11T10:56:12;12.65;;;11.48;;
13807;SDS011;40769;51.512;5.494;2024-01-11T10:58:42;13.73;;;12.43;;
13807;SDS011;40769;51.512;5.494;2024-01-11T11:01:10;13.43;;;12.15;;
13807;SDS011;40769;51.512;5.494;2024-01-11T11:03:36;13.32;;;12.02;;
13807;SDS011;40769;51.512;5.494;2024-01-11T11:06:04;12.68;;;11.48;;
13807;SDS011;40769;51.512;5.494;2024-01-11T11:08:31;14.70;;;13.20;;
13807;SDS011;40769;51.512;5.494;2024-01-11T11:11:00;14.75;;;13.35;;
13807;SDS011;40769;51.512;5.494;2024-01-11T11:13:28;16.23;;;14.65;;
13807;SDS011;40769;51.512;5.494;2024-01-11T11:15:54;13.02;;;11.82;;
13807;SDS011;40769;51.512;5.494;2024-01-11T11:18:22;13.30;;;12.00;;
13807;SDS011;40769;51.512;5.494;2024-01-11T11:20:49;12.38;;;11.18;;
13807;SDS011;40769;51.512;5.494;2024-01-11T11:23:17;15.57;;;13.98;;
13807;SDS011;40769;51.512;5.494;2024-01-11T11:25:47;18.48;;;16.58;;
13807;SDS011;40769;51.512;5.494;2024-01-11T11:28:15;14.82;;;13.43;;
13807;SDS011;40769;51.512;5.494;2024-01-11T11:30:42;14.50;;;13.10;;
13807;SDS011;40769;51.512;5.494;2024-01-11T11:33:09;16.48;;;14.88;;
13807;SDS011;40769;51.512;5.494;2024-01-11T11:35:35;15.00;;;13.55;;
13807;SDS011;40769;51.512;5.494;2024-01-11T11:38:01;13.15;;;11.98;;
13807;SDS011;40769;51.512;5.494;2024-01-11T11:40:37;12.65;;;11.52;;
13807;SDS011;40769;51.512;5.494;2024-01-11T11:43:07;14.05;;;12.63;;
13807;SDS011;40769;51.512;5.494;2024-01-11T11:45:34;14.90;;;13.45;;
13807;SDS011;40769;51.512;5.494;2024-01-11T11:48:01;14.48;;;13.18;;
13807;SDS011;40769;51.512;5.494;2024-01-11T11:50:47;13.35;;;12.10;;
13807;SDS011;40769;51.512;5.494;2024-01-11T11:53:25;12.98;;;11.68;;
13807;SDS011;40769;51.512;5.494;2024-01-11T11:55:51;15.23;;;13.73;;
13807;SDS011;40769;51.512;5.494;2024-01-11T11:58:17;14.70;;;13.20;;
13807;SDS011;40769;51.512;5.494;2024-01-11T12:00:42;14.82;;;13.43;;
13807;SDS011;40769;51.512;5.494;2024-01-11T12:03:09;16.20;;;14.60;;
13807;SDS011;40769;51.512;5.494;2024-01-11T12:05:37;15.60;;;14.10;;
13807;SDS011;40769;51.512;5.494;2024-01-11T12:08:03;14.30;;;13.00;;
13807;SDS011;40769;51.512;5.494;2024-01-11T12:10:29;13.88;;;12.48;;
13807;SDS011;40769;51.512;5.494;2024-01-11T12:12:54;14.00;;;12.55;;
13807;SDS011;40769;51.512;5.494;2024-01-11T12:15:20;15.27;;;13.82;;
13807;SDS011;40769;51.512;5.494;2024-01-11T12:17:46;15.32;;;13.88;;
13807;SDS011;40769;51.512;5.494;2024-01-11T12:20:11;13.85;;;12.55;;
13807;SDS011;40769;51.512;5.494;2024-01-11T12:22:37;14.10;;;12.68;;
13807;SDS011;40769;51.512;5.494;2024-01-11T12:25:03;15.35;;;13.75;;
13807;SDS011;40769;51.512;5.494;2024-01-11T12:27:30;15.70;;;14.20;;
13807;SDS011;40769;51.512;5.494;2024-01-11T12:29:56;17.70;;;15.98;;
13807;SDS011;40769;51.512;5.494;2024-01-11T12:32:22;17.40;;;15.70;;
13807;SDS011;40769;51.512;5.494;2024-01-11T12:34:48;16.50;;;14.90;;
13807;SDS011;40769;51.512;5.494;2024-01-11T12:37:15;17.17;;;15.10;;
13807;SDS011;40769;51.512;5.494;2024-01-11T12:39:41;16.30;;;14.63;;
13807;SDS011;40769;51.512;5.494;2024-01-11T12:42:06;18.25;;;16.38;;
13807;SDS011;40769;51.512;5.494;2024-01-11T12:44:32;18.45;;;16.55;;
13807;SDS011;40769;51.512;5.494;2024-01-11T12:47:00;18.20;;;16.40;;
13807;SDS011;40769;51.512;5.494;2024-01-11T12:49:26;17.80;;;16.00;;
13807;SDS011;40769;51.512;5.494;2024-01-11T12:51:51;16.88;;;15.18;;
13807;SDS011;40769;51.512;5.494;2024-01-11T12:54:17;18.38;;;16.50;;
13807;SDS011;40769;51.512;5.494;2024-01-11T12:56:44;18.02;;;16.15;;
13807;SDS011;40769;51.512;5.494;2024-01-11T12:59:10;18.92;;;15.48;;
13807;SDS011;40769;51.512;5.494;2024-01-11T13:01:37;18.08;;;16.15;;
13807;SDS011;40769;51.512;5.494;2024-01-11T13:04:04;17.83;;;16.02;;
13807;SDS011;40769;51.512;5.494;2024-01-11T13:06:30;18.10;;;15.68;;
13807;SDS011;40769;51.512;5.494;2024-01-11T13:08:57;16.50;;;14.90;;
13807;SDS011;40769;51.512;5.494;2024-01-11T13:11:23;18.17;;;16.00;;
13807;SDS011;40769;51.512;5.494;2024-01-11T13:13:52;18.40;;;16.55;;
13807;SDS011;40769;51.512;5.494;2024-01-11T13:16:18;19.27;;;17.40;;
13807;SDS011;40769;51.512;5.494;2024-01-11T13:18:44;17.30;;;15.55;;
13807;SDS011;40769;51.512;5.494;2024-01-11T13:21:10;18.05;;;16.25;;
13807;SDS011;40769;51.512;5.494;2024-01-11T13:23:39;17.00;;;15.30;;
13807;SDS011;40769;51.512;5.494;2024-01-11T13:26:06;16.15;;;14.55;;
13807;SDS011;40769;51.512;5.494;2024-01-11T13:28:33;17.25;;;15.55;;
13807;SDS011;40769;51.512;5.494;2024-01-11T13:30:58;17.25;;;15.52;;
13807;SDS011;40769;51.512;5.494;2024-01-11T13:33:24;16.02;;;14.43;;
13807;SDS011;40769;51.512;5.494;2024-01-11T13:35:50;18.85;;;17.02;;
13807;SDS011;40769;51.512;5.494;2024-01-11T13:38:18;18.08;;;16.27;;
13807;SDS011;40769;51.512;5.494;2024-01-11T13:40:43;18.02;;;16.23;;
13807;SDS011;40769;51.512;5.494;2024-01-11T13:43:12;15.65;;;13.98;;
13807;SDS011;40769;51.512;5.494;2024-01-11T13:45:38;15.35;;;13.85;;
13807;SDS011;40769;51.512;5.494;2024-01-11T13:48:06;14.32;;;12.93;;
13807;SDS011;40769;51.512;5.494;2024-01-11T13:50:32;14.40;;;12.95;;
13807;SDS011;40769;51.512;5.494;2024-01-11T13:52:58;12.35;;;11.05;;
13807;SDS011;40769;51.512;5.494;2024-01-11T13:55:24;10.15;;;9.10;;
13807;SDS011;40769;51.512;5.494;2024-01-11T13:57:50;9.07;;;8.27;;
13807;SDS011;40769;51.512;5.494;2024-01-11T14:00:16;9.05;;;8.05;;
13807;SDS011;40769;51.512;5.494;2024-01-11T14:02:43;8.80;;;7.90;;
13807;SDS011;40769;51.512;5.494;2024-01-11T14:05:10;9.70;;;8.70;;
13807;SDS011;40769;51.512;5.494;2024-01-11T14:07:39;7.47;;;6.78;;
13807;SDS011;40769;51.512;5.494;2024-01-11T14:10:05;8.45;;;7.65;;
13807;SDS011;40769;51.512;5.494;2024-01-11T14:12:33;9.23;;;8.32;;
13807;SDS011;40769;51.512;5.494;2024-01-11T14:15:01;7.47;;;6.78;;
13807;SDS011;40769;51.512;5.494;2024-01-11T14:17:30;7.72;;;6.93;;
13807;SDS011;40769;51.512;5.494;2024-01-11T14:19:57;8.32;;;7.53;;
13807;SDS011;40769;51.512;5.494;2024-01-11T14:22:22;9.40;;;8.43;;